createdAt,value
2023-05-21T00:00:34.611Z,20.799999
2023-05-21T00:01:43.113Z,20.299999
2023-05-21T00:02:51.590Z,20.299999
2023-05-21T00:04:00.037Z,20.299999
2023-05-21T00:05:08.318Z,19.9
2023-05-21T00:06:16.653Z,19.9
2023-05-21T00:07:24.968Z,19.9
2023-05-21T00:08:33.511Z,19.700001
2023-05-21T00:09:41.849Z,19.700001
2023-05-21T00:10:50.169Z,19.700001
2023-05-21T00:11:58.718Z,19.9
2023-05-21T00:13:07.047Z,19.9
2023-05-21T00:14:15.363Z,19.9
2023-05-21T00:15:23.890Z,19.6
2023-05-21T00:16:32.267Z,19.6
2023-05-21T00:17:40.600Z,19.6
2023-05-21T00:18:49.110Z,20.1
2023-05-21T00:19:57.440Z,20.1
2023-05-21T00:21:05.780Z,20.1
2023-05-21T00:22:14.311Z,17.200001
2023-05-21T00:23:22.631Z,17.200001
2023-05-21T00:24:30.940Z,17.200001
2023-05-21T00:25:39.489Z,17.200001
2023-05-21T00:26:47.837Z,17.200001
2023-05-21T00:27:56.150Z,17.200001
2023-05-21T00:29:04.677Z,17.9
2023-05-21T00:30:12.992Z,17.9
2023-05-21T00:31:21.367Z,17.9
2023-05-21T00:32:29.952Z,19.1
2023-05-21T00:33:38.201Z,19.1
2023-05-21T00:34:46.521Z,19.1
2023-05-21T00:35:55.060Z,18.700001
2023-05-21T00:37:03.383Z,18.700001
2023-05-21T00:38:11.714Z,18.700001
2023-05-21T00:39:20.244Z,19.9
2023-05-21T00:40:28.594Z,19.9
2023-05-21T00:41:36.928Z,19.9
2023-05-21T00:42:45.454Z,19.5
2023-05-21T00:43:53.781Z,19.5
2023-05-21T00:45:02.114Z,19.5
2023-05-21T00:46:10.703Z,20.4
2023-05-21T00:47:19.072Z,20.4
2023-05-21T00:48:27.389Z,20.4
2023-05-21T00:49:35.921Z,20
2023-05-21T00:50:44.239Z,20
2023-05-21T00:51:52.566Z,20
2023-05-21T00:53:01.097Z,19.6
2023-05-21T00:54:09.440Z,19.6
2023-05-21T00:55:17.770Z,19.6
2023-05-21T00:56:26.330Z,18.799999
2023-05-21T00:57:34.654Z,18.799999
2023-05-21T00:58:43.001Z,18.799999
2023-05-21T00:59:51.539Z,18
2023-05-21T01:00:59.875Z,18
2023-05-21T01:02:08.180Z,18
2023-05-21T01:03:16.868Z,18.200001
2023-05-21T01:04:25.082Z,18.200001
2023-05-21T01:05:33.479Z,18.200001
2023-05-21T01:06:41.907Z,18.9
2023-05-21T01:07:50.231Z,18.9
2023-05-21T01:08:58.581Z,18.9
2023-05-21T01:10:07.132Z,17.9
2023-05-21T01:11:15.466Z,17.9
2023-05-21T01:12:23.802Z,17.9
2023-05-21T01:13:32.346Z,18.799999
2023-05-21T01:14:40.673Z,18.799999
2023-05-21T01:15:48.982Z,18.799999
2023-05-21T01:16:57.532Z,18.700001
2023-05-21T01:18:05.922Z,18.700001
2023-05-21T01:19:14.248Z,18.700001
2023-05-21T01:20:22.740Z,19
2023-05-21T01:21:31.027Z,19
2023-05-21T01:22:39.374Z,19
2023-05-21T01:23:47.895Z,19
2023-05-21T01:24:56.241Z,19
2023-05-21T01:26:04.583Z,19
2023-05-21T01:27:13.132Z,20.5
2023-05-21T01:28:21.476Z,20.5
2023-05-21T01:29:29.789Z,20.5
2023-05-21T01:30:38.352Z,18.4
2023-05-21T01:31:46.684Z,18.4
2023-05-21T01:32:55.044Z,18.4
2023-05-21T01:34:03.575Z,20.1
2023-05-21T01:35:11.853Z,20.1
2023-05-21T01:36:22.266Z,20.1
2023-05-21T01:37:30.783Z,18.200001
2023-05-21T01:38:39.135Z,18.200001
2023-05-21T01:39:47.449Z,18.200001
2023-05-21T01:40:55.985Z,19.5
2023-05-21T01:42:04.332Z,19.5
2023-05-21T01:43:12.648Z,19.5
2023-05-21T01:44:21.196Z,19.9
2023-05-21T01:45:29.541Z,19.9
2023-05-21T01:46:37.954Z,19.9
2023-05-21T01:47:46.428Z,20.6
2023-05-21T01:48:54.750Z,20.6
2023-05-21T01:50:03.067Z,20.6
2023-05-21T01:51:11.626Z,20.799999
2023-05-21T01:52:19.970Z,20.799999
2023-05-21T01:53:28.295Z,20.799999
2023-05-21T01:54:36.846Z,19.299999
2023-05-21T01:55:45.186Z,19.299999
2023-05-21T01:56:53.518Z,19.299999
2023-05-21T01:58:02.615Z,21.4
2023-05-21T01:59:10.387Z,21.4
2023-05-21T02:00:19.517Z,21.4
2023-05-21T02:01:28.051Z,21.6
2023-05-21T02:02:36.448Z,21.6
2023-05-21T02:03:44.764Z,21.6
2023-05-21T02:04:53.250Z,20.9
2023-05-21T02:06:01.587Z,20.9
2023-05-21T02:07:09.912Z,20.9
2023-05-21T02:08:18.468Z,23.200001
2023-05-21T02:09:26.790Z,23.200001
2023-05-21T02:10:35.121Z,23.200001
2023-05-21T02:11:43.658Z,23.200001
2023-05-21T02:12:51.991Z,23.200001
2023-05-21T02:14:00.314Z,23.200001
2023-05-21T02:15:08.841Z,21.4
2023-05-21T02:16:17.221Z,21.4
2023-05-21T02:17:25.504Z,21.4
2023-05-21T02:18:34.036Z,21.799999
2023-05-21T02:19:42.364Z,21.799999
2023-05-21T02:20:50.677Z,21.799999
2023-05-21T02:21:59.231Z,20.9
2023-05-21T02:23:07.574Z,20.9
2023-05-21T02:24:15.922Z,20.9
2023-05-21T02:25:24.430Z,24.200001
2023-05-21T02:26:32.762Z,24.200001
2023-05-21T02:27:41.099Z,24.200001
2023-05-21T02:28:49.635Z,21.9
2023-05-21T02:29:57.966Z,21.9
2023-05-21T02:31:06.296Z,21.9
2023-05-21T02:32:14.831Z,20.700001
2023-05-21T02:33:23.158Z,20.700001
2023-05-21T02:34:31.479Z,20.700001
2023-05-21T02:35:40.026Z,21.200001
2023-05-21T02:36:48.352Z,21.200001
2023-05-21T02:37:56.690Z,21.200001
2023-05-21T02:39:05.229Z,21.6
2023-05-21T02:40:13.642Z,21.6
2023-05-21T02:41:21.886Z,21.6
2023-05-21T02:42:30.416Z,21.799999
2023-05-21T02:43:38.743Z,21.799999
2023-05-21T02:44:47.059Z,21.799999
2023-05-21T02:45:55.613Z,22.299999
2023-05-21T02:47:03.929Z,22.299999
2023-05-21T02:48:12.276Z,22.299999
2023-05-21T02:49:20.788Z,21.700001
2023-05-21T02:50:29.104Z,21.700001
2023-05-21T02:51:37.457Z,21.700001
2023-05-21T02:52:45.988Z,20.6
2023-05-21T02:53:54.309Z,20.6
2023-05-21T02:55:02.649Z,20.6
2023-05-21T02:56:11.225Z,21.1
2023-05-21T02:57:19.536Z,21.1
2023-05-21T02:58:27.872Z,21.1
2023-05-21T02:59:36.420Z,22.4
2023-05-21T03:00:44.741Z,22.4
2023-05-21T03:01:53.121Z,22.4
2023-05-21T03:03:01.704Z,22.1
2023-05-21T03:04:09.945Z,22.1
2023-05-21T03:05:18.281Z,22.1
2023-05-21T03:06:26.814Z,23
2023-05-21T03:07:35.135Z,23
2023-05-21T03:08:43.463Z,23
2023-05-21T03:09:51.996Z,22.700001
2023-05-21T03:11:00.358Z,22.700001
2023-05-21T03:12:08.689Z,22.700001
2023-05-21T03:13:17.217Z,21.200001
2023-05-21T03:14:25.549Z,21.200001
2023-05-21T03:15:33.957Z,21.200001
2023-05-21T03:16:42.417Z,21.6
2023-05-21T03:17:50.767Z,21.6
2023-05-21T03:18:59.076Z,21.6
2023-05-21T03:20:07.589Z,21.700001
2023-05-21T03:21:15.929Z,21.700001
2023-05-21T03:22:24.247Z,21.700001
2023-05-21T03:23:32.779Z,20.9
2023-05-21T03:24:41.107Z,20.9
2023-05-21T03:25:49.433Z,20.9
2023-05-21T03:26:57.992Z,21.6
2023-05-21T03:28:06.340Z,21.6
2023-05-21T03:29:14.666Z,21.6
2023-05-21T03:30:23.171Z,20.799999
2023-05-21T03:31:31.521Z,20.799999
2023-05-21T03:32:39.873Z,20.799999
2023-05-21T03:33:48.368Z,21.9
2023-05-21T03:34:56.706Z,21.9
2023-05-21T03:36:05.015Z,21.9
2023-05-21T03:37:13.571Z,21.5
2023-05-21T03:38:23.349Z,21.5
2023-05-21T03:39:31.674Z,21.5
2023-05-21T03:40:40.218Z,21.9
2023-05-21T03:41:48.555Z,21.9
2023-05-21T03:42:56.892Z,21.9
2023-05-21T03:44:05.463Z,19.6
2023-05-21T03:45:13.751Z,19.6
2023-05-21T03:46:22.107Z,19.6
2023-05-21T03:47:30.654Z,22.700001
2023-05-21T03:48:38.942Z,22.700001
2023-05-21T03:49:47.295Z,22.700001
2023-05-21T03:50:55.834Z,21.799999
2023-05-21T03:52:04.171Z,21.799999
2023-05-21T03:53:12.494Z,21.799999
2023-05-21T03:54:21.032Z,21.9
2023-05-21T03:55:29.370Z,21.9
2023-05-21T03:56:37.668Z,21.9
2023-05-21T03:57:46.200Z,22.799999
2023-05-21T03:58:54.531Z,22.799999
2023-05-21T04:00:02.882Z,22.799999
2023-05-21T04:01:11.376Z,22.5
2023-05-21T04:02:19.793Z,22.5
2023-05-21T04:03:28.194Z,22.5
2023-05-21T04:04:36.633Z,22.6
2023-05-21T04:05:44.950Z,22.6
2023-05-21T04:06:53.260Z,22.6
2023-05-21T04:08:01.825Z,21.700001
2023-05-21T04:09:10.144Z,21.700001
2023-05-21T04:10:18.482Z,21.700001
2023-05-21T04:11:27.010Z,23.200001
2023-05-21T04:12:35.329Z,23.200001
2023-05-21T04:13:43.708Z,23.200001
2023-05-21T04:14:52.237Z,24
2023-05-21T04:16:00.581Z,24
2023-05-21T04:17:08.894Z,24
2023-05-21T04:18:17.420Z,24.200001
2023-05-21T04:19:25.777Z,24.200001
2023-05-21T04:20:34.105Z,24.200001
2023-05-21T04:21:42.645Z,24.1
2023-05-21T04:22:50.965Z,24.1
2023-05-21T04:23:59.311Z,24.1
2023-05-21T04:25:07.827Z,25.4
2023-05-21T04:26:16.193Z,25.4
2023-05-21T04:27:24.497Z,25.4
2023-05-21T04:28:33.036Z,24.1
2023-05-21T04:29:41.367Z,24.1
2023-05-21T04:30:49.687Z,24.1
2023-05-21T04:31:58.260Z,25.700001
2023-05-21T04:33:06.659Z,25.700001
2023-05-21T04:34:14.864Z,25.700001
2023-05-21T04:35:23.465Z,26.1
2023-05-21T04:36:31.747Z,26.1
2023-05-21T04:37:40.104Z,26.1
2023-05-21T04:38:48.639Z,22.6
2023-05-21T04:39:56.962Z,22.6
2023-05-21T04:41:05.310Z,22.6
2023-05-21T04:42:13.845Z,26
2023-05-21T04:43:22.166Z,26
2023-05-21T04:44:30.520Z,26
2023-05-21T04:45:39.098Z,24.200001
2023-05-21T04:46:47.397Z,24.200001
2023-05-21T04:47:55.833Z,24.200001
2023-05-21T04:49:04.275Z,22.4
2023-05-21T04:50:12.600Z,22.4
2023-05-21T04:51:20.924Z,22.4
2023-05-21T04:52:29.455Z,22.200001
2023-05-21T04:53:37.785Z,22.200001
2023-05-21T04:54:46.152Z,22.200001
2023-05-21T04:55:54.660Z,20.799999
2023-05-21T04:57:02.983Z,20.799999
2023-05-21T04:58:11.298Z,20.799999
2023-05-21T04:59:19.841Z,20.799999
2023-05-21T05:00:28.156Z,20.799999
2023-05-21T05:01:36.478Z,20.799999
2023-05-21T05:02:45.076Z,19.9
2023-05-21T05:03:53.439Z,19.9
2023-05-21T05:05:01.697Z,19.9
2023-05-21T05:06:10.251Z,22.1
2023-05-21T05:07:18.555Z,22.1
2023-05-21T05:08:26.900Z,22.1
2023-05-21T05:09:35.425Z,22.5
2023-05-21T05:10:43.748Z,22.5
2023-05-21T05:11:52.069Z,22.5
2023-05-21T05:13:00.621Z,20.6
2023-05-21T05:14:08.938Z,20.6
2023-05-21T05:15:17.296Z,20.6
2023-05-21T05:16:25.994Z,20.200001
2023-05-21T05:17:34.190Z,20.200001
2023-05-21T05:18:42.501Z,20.200001
2023-05-21T05:19:51.056Z,21.1
2023-05-21T05:20:59.366Z,21.1
2023-05-21T05:22:07.725Z,21.1
2023-05-21T05:23:16.295Z,19.4
2023-05-21T05:24:24.601Z,19.4
2023-05-21T05:25:32.962Z,19.4
2023-05-21T05:26:41.541Z,21.5
2023-05-21T05:27:49.870Z,21.5
2023-05-21T05:28:58.202Z,21.5
2023-05-21T05:30:06.738Z,18.200001
2023-05-21T05:31:15.102Z,18.200001
2023-05-21T05:32:23.429Z,18.200001
2023-05-21T05:33:31.955Z,18.9
2023-05-21T05:34:40.280Z,18.9
2023-05-21T05:35:48.641Z,18.9
2023-05-21T05:36:57.167Z,19.4
2023-05-21T05:38:05.484Z,19.4
2023-05-21T05:39:13.814Z,19.4
2023-05-21T05:40:22.365Z,19.6
2023-05-21T05:41:30.710Z,19.6
2023-05-21T05:42:39.186Z,19.6
2023-05-21T05:43:47.667Z,19.5
2023-05-21T05:44:55.980Z,19.5
2023-05-21T05:46:04.409Z,19.5
2023-05-21T05:47:12.847Z,20.5
2023-05-21T05:48:21.174Z,20.5
2023-05-21T05:49:29.512Z,20.5
2023-05-21T05:50:38.038Z,20.5
2023-05-21T05:51:46.396Z,20.5
2023-05-21T05:52:54.687Z,20.5
2023-05-21T05:54:03.215Z,18.200001
2023-05-21T05:55:11.555Z,18.200001
2023-05-21T05:56:19.906Z,18.200001
2023-05-21T05:57:28.454Z,20.1
2023-05-21T05:58:36.788Z,20.1
2023-05-21T05:59:45.126Z,20.1
2023-05-21T06:00:53.658Z,20.5
2023-05-21T06:02:01.993Z,20.5
2023-05-21T06:03:10.321Z,20.5
2023-05-21T06:04:18.821Z,19.700001
2023-05-21T06:05:27.162Z,19.700001
2023-05-21T06:06:35.459Z,19.700001
2023-05-21T06:07:44.018Z,20.6
2023-05-21T06:08:52.309Z,20.6
2023-05-21T06:10:00.667Z,20.6
2023-05-21T06:11:09.192Z,18.700001
2023-05-21T06:12:17.507Z,18.700001
2023-05-21T06:13:25.823Z,18.700001
2023-05-21T06:14:34.378Z,20.6
2023-05-21T06:15:42.727Z,20.6
2023-05-21T06:16:51.030Z,20.6
2023-05-21T06:17:59.567Z,18.799999
2023-05-21T06:19:07.909Z,18.799999
2023-05-21T06:20:16.235Z,18.799999
2023-05-21T06:21:24.799Z,17.700001
2023-05-21T06:22:33.143Z,17.700001
2023-05-21T06:23:41.493Z,17.700001
2023-05-21T06:24:50.000Z,21.4
2023-05-21T06:25:58.351Z,21.4
2023-05-21T06:27:06.696Z,21.4
2023-05-21T06:28:15.243Z,20.4
2023-05-21T06:29:23.580Z,20.4
2023-05-21T06:30:31.894Z,20.4
2023-05-21T06:31:40.427Z,21.5
2023-05-21T06:32:48.854Z,21.5
2023-05-21T06:33:57.217Z,21.5
2023-05-21T06:35:05.651Z,19.200001
2023-05-21T06:36:13.968Z,19.200001
2023-05-21T06:37:22.784Z,19.200001
2023-05-21T06:38:30.857Z,19.1
2023-05-21T06:39:39.187Z,19.1
2023-05-21T06:40:47.495Z,19.1
2023-05-21T06:41:56.030Z,19.9
2023-05-21T06:43:04.366Z,19.9
2023-05-21T06:44:12.689Z,19.9
2023-05-21T06:45:21.208Z,20.799999
2023-05-21T06:46:29.708Z,20.799999
2023-05-21T06:47:37.942Z,20.799999
2023-05-21T06:48:46.425Z,20.200001
2023-05-21T06:49:54.760Z,20.200001
2023-05-21T06:51:03.092Z,20.200001
2023-05-21T06:52:11.638Z,19.200001
2023-05-21T06:53:19.978Z,19.200001
2023-05-21T06:54:28.332Z,19.200001
2023-05-21T06:55:37.109Z,18.799999
2023-05-21T06:56:45.210Z,18.799999
2023-05-21T06:57:53.531Z,18.799999
2023-05-21T06:59:02.128Z,18.700001
2023-05-21T07:00:10.415Z,18.700001
2023-05-21T07:01:18.774Z,18.700001
2023-05-21T07:02:27.403Z,20.5
2023-05-21T07:03:35.639Z,20.5
2023-05-21T07:04:43.911Z,20.5
2023-05-21T07:05:52.470Z,19.299999
2023-05-21T07:07:00.832Z,19.299999
2023-05-21T07:08:10.692Z,19.299999
2023-05-21T07:09:17.692Z,19.4
2023-05-21T07:10:26.053Z,19.4
2023-05-21T07:11:34.406Z,19.4
2023-05-21T07:12:42.907Z,20.200001
2023-05-21T07:13:51.219Z,20.200001
2023-05-21T07:14:59.556Z,20.200001
2023-05-21T07:16:08.108Z,19.9
2023-05-21T07:17:16.435Z,19.9
2023-05-21T07:18:24.766Z,19.9
2023-05-21T07:19:33.365Z,21.9
2023-05-21T07:20:41.654Z,21.9
2023-05-21T07:21:49.981Z,21.9
2023-05-21T07:22:58.533Z,17
2023-05-21T07:24:06.847Z,17
2023-05-21T07:25:15.934Z,17
2023-05-21T07:26:24.470Z,18.799999
2023-05-21T07:27:32.830Z,18.799999
2023-05-21T07:28:41.129Z,18.799999
2023-05-21T07:29:49.670Z,16.5
2023-05-21T07:30:58.016Z,16.5
2023-05-21T07:32:06.342Z,16.5
2023-05-21T07:33:14.888Z,19
2023-05-21T07:34:23.217Z,19
2023-05-21T07:35:31.544Z,19
2023-05-21T07:36:40.064Z,18.4
2023-05-21T07:37:48.380Z,18.4
2023-05-21T07:38:56.723Z,18.4
2023-05-21T07:40:05.261Z,19
2023-05-21T07:41:13.598Z,19
2023-05-21T07:42:21.905Z,19
2023-05-21T07:43:30.487Z,15.8
2023-05-21T07:44:38.813Z,15.8
2023-05-21T07:45:47.138Z,15.8
2023-05-21T07:46:55.676Z,16.299999
2023-05-21T07:48:04.042Z,16.299999
2023-05-21T07:49:12.354Z,16.299999
2023-05-21T07:50:20.887Z,15.1
2023-05-21T07:51:29.225Z,15.1
2023-05-21T07:52:37.627Z,15.1
2023-05-21T07:53:46.118Z,16.4
2023-05-21T07:54:54.449Z,16.4
2023-05-21T07:56:02.761Z,16.4
2023-05-21T07:57:11.297Z,15.9
2023-05-21T07:58:19.694Z,15.9
2023-05-21T07:59:28.016Z,15.9
2023-05-21T08:00:36.553Z,14.5
2023-05-21T08:01:44.897Z,14.5
2023-05-21T08:02:53.357Z,14.5
2023-05-21T08:04:01.825Z,14
2023-05-21T08:05:10.126Z,14
2023-05-21T08:06:18.414Z,14
2023-05-21T08:07:26.959Z,14.1
2023-05-21T08:08:35.305Z,14.1
2023-05-21T08:09:43.659Z,14.1
2023-05-21T08:10:52.210Z,14.5
2023-05-21T08:12:00.553Z,14.5
2023-05-21T08:13:08.881Z,14.5
2023-05-21T08:14:17.413Z,14.1
2023-05-21T08:15:25.783Z,14.1
2023-05-21T08:16:34.090Z,14.1
2023-05-21T08:17:42.671Z,13.7
2023-05-21T08:18:50.984Z,13.7
2023-05-21T08:19:59.290Z,13.7
2023-05-21T08:21:07.822Z,13.5
2023-05-21T08:22:16.171Z,13.5
2023-05-21T08:23:25.037Z,13.5
2023-05-21T08:24:33.568Z,14.4
2023-05-21T08:25:41.898Z,14.4
2023-05-21T08:26:50.233Z,14.4
2023-05-21T08:27:58.780Z,14.8
2023-05-21T08:29:07.097Z,14.8
2023-05-21T08:30:15.420Z,14.8
2023-05-21T08:31:24.005Z,14.7
2023-05-21T08:32:32.377Z,14.7
2023-05-21T08:33:40.686Z,14.7
2023-05-21T08:34:49.235Z,15.2
2023-05-21T08:35:57.577Z,15.2
2023-05-21T08:37:05.903Z,15.2
2023-05-21T08:38:14.444Z,14.8
2023-05-21T08:39:22.769Z,14.8
2023-05-21T08:40:31.108Z,14.8
2023-05-21T08:41:39.628Z,14.4
2023-05-21T08:42:47.966Z,14.4
2023-05-21T08:43:56.293Z,14.4
2023-05-21T08:45:04.840Z,14.7
2023-05-21T08:46:13.174Z,14.7
2023-05-21T08:47:21.546Z,14.7
2023-05-21T08:48:30.014Z,14.3
2023-05-21T08:49:38.349Z,14.3
2023-05-21T08:50:46.709Z,14.3
2023-05-21T08:51:55.261Z,15.2
2023-05-21T08:53:07.438Z,15.2
2023-05-21T08:54:11.930Z,15.2
2023-05-21T08:55:20.480Z,13.9
2023-05-21T08:56:28.817Z,13.9
2023-05-21T08:57:37.151Z,13.9
2023-05-21T08:58:45.705Z,13
2023-05-21T08:59:54.043Z,13
2023-05-21T09:01:02.532Z,13
2023-05-21T09:02:10.938Z,14
2023-05-21T09:03:19.461Z,14
2023-05-21T09:04:27.694Z,14
2023-05-21T09:05:36.342Z,13.6
2023-05-21T09:06:44.550Z,13.6
2023-05-21T09:07:52.935Z,13.6
2023-05-21T09:09:01.450Z,13.9
2023-05-21T09:10:09.783Z,13.9
2023-05-21T09:11:18.069Z,13.9
2023-05-21T09:12:26.594Z,15.3
2023-05-21T09:13:36.305Z,15.3
2023-05-21T09:14:43.265Z,15.3
2023-05-21T09:15:51.815Z,14.4
2023-05-21T09:17:00.202Z,14.4
2023-05-21T09:18:08.518Z,14.4
2023-05-21T09:19:17.092Z,13.7
2023-05-21T09:20:25.373Z,13.7
2023-05-21T09:21:33.676Z,13.7
2023-05-21T09:22:42.224Z,16.700001
2023-05-21T09:23:50.560Z,16.700001
2023-05-21T09:24:58.882Z,16.700001
2023-05-21T09:26:07.438Z,13.9
2023-05-21T09:27:15.754Z,13.9
2023-05-21T09:28:24.092Z,13.9
2023-05-21T09:29:32.625Z,12.9
2023-05-21T09:30:41.221Z,12.9
2023-05-21T09:31:49.327Z,12.9
2023-05-21T09:32:57.877Z,12.7
2023-05-21T09:34:06.195Z,12.7
2023-05-21T09:35:14.534Z,12.7
2023-05-21T09:36:23.066Z,14.4
2023-05-21T09:37:31.401Z,14.4
2023-05-21T09:38:39.738Z,14.4
2023-05-21T09:39:48.281Z,12.8
2023-05-21T09:40:56.630Z,12.8
2023-05-21T09:42:04.974Z,12.8
2023-05-21T09:43:13.508Z,12.4
2023-05-21T09:44:21.822Z,12.4
2023-05-21T09:45:30.161Z,12.4
2023-05-21T09:46:38.758Z,12.7
2023-05-21T09:47:47.123Z,12.7
2023-05-21T09:48:55.405Z,12.7
2023-05-21T09:50:03.955Z,12.2
2023-05-21T09:51:12.311Z,12.2
2023-05-21T09:52:20.603Z,12.2
2023-05-21T09:53:29.147Z,11.8
2023-05-21T09:54:37.472Z,11.8
2023-05-21T09:55:45.802Z,11.8
2023-05-21T09:56:54.328Z,11.5
2023-05-21T09:58:02.657Z,11.5
2023-05-21T09:59:10.988Z,11.5
2023-05-21T10:00:19.517Z,12.5
2023-05-21T10:01:27.881Z,12.5
2023-05-21T10:02:36.241Z,12.5
2023-05-21T10:03:44.771Z,13.6
2023-05-21T10:04:53.122Z,13.6
2023-05-21T10:06:01.456Z,13.6
2023-05-21T10:07:10.011Z,11.9
2023-05-21T10:08:18.298Z,11.9
2023-05-21T10:09:26.656Z,11.9
2023-05-21T10:10:35.355Z,13.9
2023-05-21T10:11:43.523Z,13.9
2023-05-21T10:12:51.848Z,13.9
2023-05-21T10:14:00.389Z,12.1
2023-05-21T10:15:08.735Z,12.1
2023-05-21T10:16:17.064Z,12.1
2023-05-21T10:17:25.614Z,14.2
2023-05-21T10:18:33.914Z,14.2
2023-05-21T10:19:42.254Z,14.2
2023-05-21T10:20:50.802Z,13.5
2023-05-21T10:21:59.130Z,13.5
2023-05-21T10:23:07.490Z,13.5
2023-05-21T10:24:15.996Z,12.4
2023-05-21T10:25:24.330Z,12.4
2023-05-21T10:26:32.649Z,12.4
2023-05-21T10:27:41.171Z,12.1
2023-05-21T10:28:49.526Z,12.1
2023-05-21T10:29:57.869Z,12.1
2023-05-21T10:31:06.431Z,11.6
2023-05-21T10:32:14.821Z,11.6
2023-05-21T10:33:23.120Z,11.6
2023-05-21T10:34:31.613Z,12.3
2023-05-21T10:35:39.965Z,12.3
2023-05-21T10:36:48.297Z,12.3
2023-05-21T10:37:56.840Z,11.7
2023-05-21T10:39:05.284Z,11.7
2023-05-21T10:40:13.493Z,11.7
2023-05-21T10:41:22.075Z,10.7
2023-05-21T10:42:30.436Z,10.7
2023-05-21T10:43:38.750Z,10.7
2023-05-21T10:44:47.295Z,11.9
2023-05-21T10:45:55.630Z,11.9
2023-05-21T10:47:03.943Z,11.9
2023-05-21T10:48:12.538Z,12.6
2023-05-21T10:49:20.834Z,12.6
2023-05-21T10:50:29.156Z,12.6
2023-05-21T10:51:37.684Z,12.7
2023-05-21T10:52:46.041Z,12.7
2023-05-21T10:53:54.350Z,12.7
2023-05-21T10:55:02.907Z,12.4
2023-05-21T10:56:11.214Z,12.4
2023-05-21T10:57:19.558Z,12.4
2023-05-21T10:58:29.950Z,11.1
2023-05-21T10:59:36.470Z,11.1
2023-05-21T11:00:44.782Z,11.1
2023-05-21T11:01:53.320Z,14
2023-05-21T11:03:01.698Z,14
2023-05-21T11:04:10.002Z,14
2023-05-21T11:05:18.552Z,11.5
2023-05-21T11:06:26.895Z,11.5
2023-05-21T11:07:35.217Z,11.5
2023-05-21T11:08:43.756Z,11.7
2023-05-21T11:09:52.078Z,11.7
2023-05-21T11:11:00.449Z,11.7
2023-05-21T11:12:08.943Z,10.9
2023-05-21T11:13:17.272Z,10.9
2023-05-21T11:14:25.609Z,10.9
2023-05-21T11:15:34.178Z,12.5
2023-05-21T11:16:42.547Z,12.5
2023-05-21T11:17:50.853Z,12.5
2023-05-21T11:18:59.420Z,10.8
2023-05-21T11:20:07.696Z,10.8
2023-05-21T11:21:16.057Z,10.8
2023-05-21T11:22:24.587Z,10.3
2023-05-21T11:23:32.902Z,10.3
2023-05-21T11:24:41.248Z,10.3
2023-05-21T11:25:49.761Z,11.5
2023-05-21T11:26:58.229Z,11.5
2023-05-21T11:28:06.411Z,11.5
2023-05-21T11:29:14.944Z,14
2023-05-21T11:30:23.300Z,14
2023-05-21T11:31:31.635Z,14
2023-05-21T11:32:40.257Z,13.3
2023-05-21T11:33:48.485Z,13.3
2023-05-21T11:34:56.823Z,13.3
2023-05-21T11:36:05.360Z,10.5
2023-05-21T11:37:13.695Z,10.5
2023-05-21T11:38:22.014Z,10.5
2023-05-21T11:39:30.590Z,11.8
2023-05-21T11:40:38.955Z,11.8
2023-05-21T11:41:47.267Z,11.8
2023-05-21T11:42:55.905Z,11.4
2023-05-21T11:44:04.151Z,11.4
2023-05-21T11:45:12.478Z,11.4
2023-05-21T11:46:21.019Z,9.6
2023-05-21T11:47:29.378Z,9.6
2023-05-21T11:48:37.651Z,9.6
2023-05-21T11:49:46.230Z,10.7
2023-05-21T11:50:54.523Z,10.7
2023-05-21T11:52:02.850Z,10.7
2023-05-21T11:53:11.403Z,11.5
2023-05-21T11:54:19.744Z,11.5
2023-05-21T11:55:28.090Z,11.5
2023-05-21T11:56:36.640Z,11.8
2023-05-21T11:57:44.973Z,11.8
2023-05-21T11:58:53.425Z,11.8
2023-05-21T12:00:01.925Z,10.3
2023-05-21T12:01:10.188Z,10.3
2023-05-21T12:02:18.542Z,10.3
2023-05-21T12:03:27.574Z,10.7
2023-05-21T12:04:35.423Z,10.7
2023-05-21T12:05:43.774Z,10.7
2023-05-21T12:06:52.421Z,9.9
2023-05-21T12:08:00.750Z,9.9
2023-05-21T12:09:09.114Z,9.9
2023-05-21T12:10:17.673Z,11.1
2023-05-21T12:11:26.003Z,11.1
2023-05-21T12:12:45.910Z,11.1
2023-05-21T12:13:42.921Z,9.5
2023-05-21T12:14:51.283Z,9.5
2023-05-21T12:15:59.650Z,9.5
2023-05-21T12:17:08.159Z,9.3
2023-05-21T12:18:16.504Z,9.3
2023-05-21T12:19:24.919Z,9.3
2023-05-21T12:20:33.394Z,9.9
2023-05-21T12:21:41.716Z,9.9
2023-05-21T12:22:50.092Z,9.9
2023-05-21T12:23:58.613Z,10.8
2023-05-21T12:25:06.933Z,10.8
2023-05-21T12:26:15.257Z,10.8
2023-05-21T12:27:23.825Z,10.9
2023-05-21T12:28:32.184Z,10.9
2023-05-21T12:29:40.548Z,10.9
2023-05-21T12:30:49.083Z,10.3
2023-05-21T12:31:57.414Z,10.3
2023-05-21T12:33:05.719Z,10.3
2023-05-21T12:34:14.255Z,9.5
2023-05-21T12:35:23.019Z,9.5
2023-05-21T12:36:30.930Z,9.5
2023-05-21T12:37:39.504Z,11.1
2023-05-21T12:38:47.841Z,11.1
2023-05-21T12:39:56.172Z,11.1
2023-05-21T12:41:04.716Z,11.2
2023-05-21T12:42:13.053Z,11.2
2023-05-21T12:43:21.388Z,11.2
2023-05-21T12:44:29.922Z,12.1
2023-05-21T12:45:38.250Z,12.1
2023-05-21T12:46:46.653Z,12.1
2023-05-21T12:47:55.162Z,12
2023-05-21T12:49:03.471Z,12
2023-05-21T12:50:11.963Z,12
2023-05-21T12:51:20.373Z,10.6
2023-05-21T12:52:28.690Z,10.6
2023-05-21T12:53:37.024Z,10.6
2023-05-21T12:54:45.583Z,12.1
2023-05-21T12:55:53.923Z,12.1
2023-05-21T12:57:02.270Z,12.1
2023-05-21T12:58:10.799Z,17.4
2023-05-21T12:59:19.152Z,17.4
2023-05-21T13:00:27.509Z,17.4
2023-05-21T13:01:36.079Z,10.1
2023-05-21T13:02:44.891Z,10.1
2023-05-21T13:03:52.845Z,10.1
2023-05-21T13:05:01.270Z,11.4
2023-05-21T13:06:09.634Z,11.4
2023-05-21T13:07:17.980Z,11.4
2023-05-21T13:08:26.538Z,9.6
2023-05-21T13:09:34.880Z,9.6
2023-05-21T13:10:43.213Z,9.6
2023-05-21T13:11:51.773Z,9.7
2023-05-21T13:13:00.119Z,9.7
2023-05-21T13:14:08.425Z,9.7
2023-05-21T13:15:16.987Z,9.6
2023-05-21T13:16:25.394Z,9.6
2023-05-21T13:17:33.696Z,9.6
2023-05-21T13:18:42.281Z,10.3
2023-05-21T13:19:50.623Z,10.3
2023-05-21T13:20:58.960Z,10.3
2023-05-21T13:22:07.497Z,10.5
2023-05-21T13:23:15.840Z,10.5
2023-05-21T13:24:24.179Z,10.5
2023-05-21T13:25:32.745Z,10.3
2023-05-21T13:26:41.071Z,10.3
2023-05-21T13:27:49.419Z,10.3
2023-05-21T13:28:57.992Z,9.8
2023-05-21T13:30:06.313Z,9.8
2023-05-21T13:31:14.654Z,9.8
2023-05-21T13:32:23.334Z,10.4
2023-05-21T13:33:31.835Z,10.4
2023-05-21T13:34:39.962Z,10.4
2023-05-21T13:35:48.518Z,11.2
2023-05-21T13:36:56.877Z,11.2
2023-05-21T13:38:05.243Z,11.2
2023-05-21T13:39:13.780Z,11.1
2023-05-21T13:40:22.132Z,11.1
2023-05-21T13:41:30.469Z,11.1
2023-05-21T13:42:39.032Z,9.8
2023-05-21T13:43:47.376Z,9.8
2023-05-21T13:44:55.710Z,9.8
2023-05-21T13:46:04.290Z,10.4
2023-05-21T13:47:12.636Z,10.4
2023-05-21T13:48:21.061Z,10.4
2023-05-21T13:49:29.606Z,10.1
2023-05-21T13:50:38.113Z,10.1
2023-05-21T13:51:46.253Z,10.1
2023-05-21T13:52:54.808Z,10.9
2023-05-21T13:54:03.149Z,10.9
2023-05-21T13:55:11.487Z,10.9
2023-05-21T13:56:20.026Z,10.1
2023-05-21T13:57:28.383Z,10.1
2023-05-21T13:58:36.741Z,10.1
2023-05-21T13:59:45.309Z,10.2
2023-05-21T14:00:53.642Z,10.2
2023-05-21T14:02:02.067Z,10.2
2023-05-21T14:03:10.567Z,9.3
2023-05-21T14:04:18.912Z,9.3
2023-05-21T14:05:27.285Z,9.3
2023-05-21T14:06:35.861Z,9.3
2023-05-21T14:07:44.160Z,9.3
2023-05-21T14:08:52.515Z,9.3
2023-05-21T14:10:01.056Z,9.3
2023-05-21T14:11:09.404Z,9.3
2023-05-21T14:12:17.771Z,9.3
2023-05-21T14:13:26.318Z,10.5
2023-05-21T14:14:34.647Z,10.5
2023-05-21T14:15:43.020Z,10.5
2023-05-21T14:16:51.694Z,9.9
2023-05-21T14:17:59.958Z,9.9
2023-05-21T14:19:08.282Z,9.9
2023-05-21T14:20:16.787Z,10.4
2023-05-21T14:21:25.135Z,10.4
2023-05-21T14:22:33.537Z,10.4
2023-05-21T14:23:42.052Z,9.2
2023-05-21T14:24:50.390Z,9.2
2023-05-21T14:25:58.718Z,9.2
2023-05-21T14:27:07.274Z,9.1
2023-05-21T14:28:15.628Z,9.1
2023-05-21T14:29:24.085Z,9.1
2023-05-21T14:30:32.576Z,9.2
2023-05-21T14:31:40.916Z,9.2
2023-05-21T14:32:49.311Z,9.2
2023-05-21T14:33:57.787Z,10.4
2023-05-21T14:35:06.156Z,10.4
2023-05-21T14:36:14.495Z,10.4
2023-05-21T14:37:23.054Z,8.3
2023-05-21T14:38:31.419Z,8.3
2023-05-21T14:39:39.765Z,8.3
2023-05-21T14:40:48.301Z,8.1
2023-05-21T14:41:56.665Z,8.1
2023-05-21T14:43:05.006Z,8.1
2023-05-21T14:44:13.557Z,9.4
2023-05-21T14:45:21.915Z,9.4